createdAt,value
2022-11-17T17:01:49.452Z,189.00
2022-11-17T17:03:21.322Z,194.50
2022-11-17T17:04:53.015Z,159.50
2022-11-17T17:06:24.958Z,162.25
2022-11-17T17:07:57.053Z,146.50
2022-11-17T17:09:29.141Z,146.25
2022-11-17T17:11:05.217Z,119.50
2022-11-17T17:12:36.886Z,123.60
2022-11-17T17:14:09.607Z,117.60
2022-11-17T17:15:41.527Z,110.60
2022-11-17T17:17:13.260Z,112.00
2022-11-17T17:18:46.213Z,107.00
2022-11-17T17:20:18.106Z,92.25
2022-11-17T17:21:49.741Z,90.75
2022-11-17T17:23:21.370Z,87.50
2022-11-17T17:24:53.027Z,91.75
2022-11-17T17:26:26.183Z,97.25
2022-11-17T17:27:58.296Z,107.00
2022-11-17T17:29:29.969Z,117.00
2022-11-17T17:31:01.882Z,23.20
2022-11-17T17:32:33.722Z,62.00
2022-11-17T17:34:06.316Z,72.50
2022-11-17T17:35:38.055Z,78.50
2022-11-17T17:37:09.757Z,87.75
2022-11-17T17:38:41.959Z,99.20
2022-11-17T17:40:13.723Z,79.25
2022-11-17T17:41:46.175Z,92.75
2022-11-17T17:43:18.086Z,86.75
2022-11-17T17:44:49.723Z,83.75
2022-11-17T17:46:21.394Z,89.00
2022-11-17T17:47:53.048Z,97.25
2022-11-17T17:49:24.693Z,130.25
2022-11-17T17:51:03.377Z,140.25
2022-11-17T17:52:35.345Z,143.25
2022-11-17T17:54:07.140Z,141.75
2022-11-17T17:55:38.811Z,152.00
2022-11-17T17:57:10.585Z,167.25
2022-11-17T17:58:42.527Z,162.50
2022-11-17T18:00:14.651Z,172.00
2022-11-17T18:01:47.749Z,157.25
2022-11-17T18:03:20.454Z,159.75
2022-11-17T18:04:52.150Z,155.75
2022-11-17T18:06:23.940Z,161.75
2022-11-17T18:07:55.677Z,164.00
2022-11-17T18:09:27.479Z,162.50
2022-11-17T18:11:00.466Z,161.25
2022-11-17T18:12:32.120Z,159.25
2022-11-17T18:14:04.065Z,158.50
2022-11-17T18:15:39.244Z,155.25
2022-11-17T18:17:11.008Z,159.50
2022-11-17T18:18:44.064Z,158.00
2022-11-17T18:20:16.229Z,172.00
2022-11-17T18:21:47.904Z,193.25
2022-11-17T18:23:19.591Z,191.75
2022-11-17T18:24:53.766Z,190.00
2022-11-17T18:26:29.305Z,205.25
2022-11-17T18:28:01.047Z,195.25
2022-11-17T18:29:32.740Z,194.00
2022-11-17T18:31:04.766Z,189.50
2022-11-17T18:32:36.618Z,177.25
2022-11-17T18:34:18.915Z,196.50
2022-11-17T18:35:50.633Z,182.25
2022-11-17T18:37:23.213Z,239.00
2022-11-17T18:38:55.149Z,230.67
2022-11-17T18:40:26.883Z,193.25
2022-11-17T18:41:58.571Z,182.25
2022-11-17T18:43:31.511Z,162.75
2022-11-17T18:45:03.670Z,153.75
2022-11-17T18:46:35.345Z,151.00
2022-11-17T18:48:07.240Z,171.50
2022-11-17T18:49:38.970Z,184.25
2022-11-17T18:51:19.492Z,184.75
2022-11-17T18:52:52.125Z,181.75
2022-11-17T18:54:23.916Z,177.75
2022-11-17T18:56:14.302Z,166.50
2022-11-17T18:57:46.016Z,168.00
2022-11-17T18:59:18.678Z,186.75
2022-11-17T19:00:50.689Z,172.25
2022-11-17T19:02:22.435Z,178.00
2022-11-17T19:03:54.957Z,172.00
2022-11-17T19:05:26.684Z,157.75
2022-11-17T19:06:58.518Z,160.75
2022-11-17T19:08:30.993Z,167.50
2022-11-17T19:10:02.660Z,159.75
2022-11-17T19:11:34.839Z,153.00
2022-11-17T19:13:06.719Z,150.25
2022-11-17T19:14:38.379Z,153.50
2022-11-17T19:16:20.826Z,137.50
2022-11-17T19:17:52.482Z,148.00
2022-11-17T19:19:24.114Z,134.00
2022-11-17T19:21:09.029Z,121.50
2022-11-17T19:22:40.720Z,119.25
2022-11-17T19:24:12.878Z,114.75
2022-11-17T19:25:45.496Z,114.40
2022-11-17T19:27:17.241Z,117.00
2022-11-17T19:28:49.091Z,112.00
2022-11-17T19:30:20.847Z,111.60
2022-11-17T19:31:52.721Z,116.40
2022-11-17T19:33:24.660Z,114.80
2022-11-17T19:35:03.575Z,141.50
2022-11-17T19:36:41.571Z,148.25
2022-11-17T19:38:13.268Z,144.25
2022-11-17T19:39:45.067Z,143.75
2022-11-17T19:41:26.164Z,136.25
2022-11-17T19:42:57.947Z,148.50
2022-11-17T19:44:29.812Z,138.50
2022-11-17T19:46:02.259Z,132.25
2022-11-17T19:47:34.244Z,122.75
2022-11-17T19:49:06.193Z,128.00
2022-11-17T19:50:37.897Z,117.50
2022-11-17T19:52:09.653Z,122.25
2022-11-17T19:53:42.620Z,142.25
2022-11-17T19:55:14.307Z,150.00
2022-11-17T19:56:46.146Z,155.75
2022-11-17T19:58:18.761Z,138.00
2022-11-17T19:59:50.417Z,152.00
2022-11-17T20:01:26.593Z,143.25
2022-11-17T20:02:58.323Z,136.25
2022-11-17T20:04:29.987Z,153.00
2022-11-17T20:06:01.770Z,144.50
2022-11-17T20:07:33.566Z,137.00
2022-11-17T20:09:09.546Z,156.00
2022-11-17T20:10:41.354Z,167.75
2022-11-17T20:12:13.095Z,172.50
2022-11-17T20:13:45.069Z,167.50
2022-11-17T20:15:33.001Z,163.00
2022-11-17T20:17:05.531Z,168.50
2022-11-17T20:18:37.237Z,164.00
2022-11-17T20:20:09.582Z,165.50
2022-11-17T20:21:41.676Z,162.00
2022-11-17T20:23:13.426Z,157.75
2022-11-17T20:24:45.190Z,148.75
2022-11-17T20:26:24.202Z,144.00
2022-11-17T20:27:55.922Z,149.50
2022-11-17T20:29:27.649Z,131.25
2022-11-17T20:30:59.460Z,142.25
2022-11-17T20:32:31.901Z,141.00
2022-11-17T20:34:05.196Z,127.25
2022-11-17T20:35:39.416Z,135.50
2022-11-17T20:37:11.079Z,131.25
2022-11-17T20:38:42.813Z,137.25
2022-11-17T20:40:14.780Z,127.25
2022-11-17T20:41:46.508Z,152.50
2022-11-17T20:43:18.209Z,139.75
2022-11-17T20:44:50.147Z,138.50
2022-11-17T20:46:22.214Z,143.50
2022-11-17T20:47:53.970Z,145.00
2022-11-17T20:49:27.808Z,136.50
2022-11-17T20:51:01.146Z,162.25
2022-11-17T20:52:32.779Z,142.50
2022-11-17T20:54:04.598Z,172.75
2022-11-17T20:55:36.900Z,165.50
2022-11-17T20:57:08.730Z,172.75
2022-11-17T20:58:40.552Z,155.25
2022-11-17T21:00:12.852Z,157.25
2022-11-17T21:01:44.637Z,152.50
2022-11-17T21:03:16.495Z,164.75
2022-11-17T21:04:48.264Z,148.75
2022-11-17T21:06:20.135Z,165.25
2022-11-17T21:07:51.837Z,160.75
2022-11-17T21:09:23.691Z,156.50
2022-11-17T21:10:59.565Z,165.25
2022-11-17T21:12:32.173Z,178.25
2022-11-17T21:14:05.029Z,174.50
2022-11-17T21:15:36.868Z,179.00
2022-11-17T21:17:28.720Z,170.00
2022-11-17T21:19:00.592Z,175.50
2022-11-17T21:20:33.377Z,174.00
2022-11-17T21:22:05.183Z,163.00
2022-11-17T21:23:37.564Z,162.00
2022-11-17T21:25:09.533Z,151.25
2022-11-17T21:26:41.239Z,153.00
2022-11-17T21:28:12.861Z,153.25
2022-11-17T21:29:44.491Z,157.25
2022-11-17T21:31:17.757Z,156.50
2022-11-17T21:32:49.447Z,150.75
2022-11-17T21:34:21.215Z,123.75
2022-11-17T21:35:52.882Z,157.00
2022-11-17T21:37:24.524Z,120.50
2022-11-17T21:38:56.430Z,135.50
2022-11-17T21:40:28.063Z,135.50
2022-11-17T21:42:00.109Z,133.00
2022-11-17T21:43:31.868Z,114.00
2022-11-17T21:45:03.617Z,139.75
2022-11-17T21:46:36.256Z,115.00
2022-11-17T21:48:08.130Z,114.60
2022-11-17T21:49:39.841Z,107.50
2022-11-17T21:51:19.296Z,123.25
2022-11-17T21:52:50.952Z,128.25
2022-11-17T21:54:22.792Z,140.50
2022-11-17T21:56:00.283Z,135.00
2022-11-17T21:57:31.952Z,130.75
2022-11-17T21:59:05.509Z,124.00
2022-11-17T22:00:38.154Z,124.25
2022-11-17T22:02:10.165Z,122.25
2022-11-17T22:03:42.060Z,133.25
2022-11-17T22:05:13.806Z,124.25
2022-11-17T22:06:45.900Z,120.60
2022-11-17T22:08:17.707Z,115.25
2022-11-17T22:09:49.862Z,114.00
2022-11-17T22:11:36.495Z,108.40
2022-11-17T22:13:08.795Z,111.20
2022-11-17T22:14:40.513Z,112.20
2022-11-17T22:16:13.374Z,95.60
2022-11-17T22:17:45.044Z,97.20
2022-11-17T22:19:17.215Z,97.80
2022-11-17T22:20:52.219Z,92.75
2022-11-17T22:22:24.126Z,96.25
2022-11-17T22:23:55.880Z,94.50
2022-11-17T22:25:44.719Z,82.75
2022-11-17T22:27:17.284Z,92.75
2022-11-17T22:28:55.494Z,88.50
2022-11-17T22:30:27.829Z,85.75
2022-11-17T22:31:59.576Z,81.75
2022-11-17T22:33:31.208Z,80.75
2022-11-17T22:35:02.954Z,78.75
2022-11-17T22:36:34.664Z,80.00
2022-11-17T22:38:06.420Z,78.75
2022-11-17T22:39:38.424Z,76.75
2022-11-17T22:41:10.271Z,73.00
2022-11-17T22:42:41.916Z,69.00
2022-11-17T22:44:14.282Z,75.50
2022-11-17T22:45:46.482Z,80.75
2022-11-17T22:47:18.248Z,94.25
2022-11-17T22:48:50.344Z,93.25
2022-11-17T22:50:22.030Z,97.50
2022-11-17T22:52:08.676Z,87.25
2022-11-17T22:53:40.519Z,83.00
2022-11-17T22:55:12.291Z,95.00
2022-11-17T22:56:44.000Z,80.50
2022-11-17T22:58:17.025Z,83.00
2022-11-17T22:59:48.693Z,82.00
2022-11-17T23:01:20.345Z,84.50
2022-11-17T23:02:52.092Z,87.25
2022-11-17T23:04:23.849Z,77.25
2022-11-17T23:05:55.551Z,79.50
2022-11-17T23:07:27.340Z,80.25
2022-11-17T23:08:59.213Z,79.75
2022-11-17T23:10:30.921Z,82.00
2022-11-17T23:12:02.658Z,80.25
2022-11-17T23:13:34.416Z,77.50
2022-11-17T23:15:06.935Z,72.00
2022-11-17T23:16:38.799Z,72.50
2022-11-17T23:18:10.544Z,78.00
2022-11-17T23:19:42.212Z,91.00
2022-11-17T23:21:13.986Z,89.00
2022-11-17T23:22:45.618Z,96.00
2022-11-17T23:24:17.687Z,98.25
2022-11-17T23:25:49.823Z,92.50
2022-11-17T23:27:21.568Z,92.25
2022-11-17T23:28:53.274Z,86.75
2022-11-17T23:30:25.068Z,87.00
2022-11-17T23:31:56.884Z,93.75
2022-11-17T23:33:41.968Z,86.25
